Time;durP1;ratioP1;P1;durP2;ratioP2;P2;SDS_P1;SDS_P2;PMS_P1;PMS_P2;Temp;Humidity;BMP_temperature;BMP_pressure;BME280_temperature;BME280_humidity;BME280_pressure;Samples;Min_cycle;Max_cycle;Signal;HPM_P1;HPM_P2
2023/01/25 00:01:55;;;;;;;87.17;12.03;;;;;;;;;;5064760;28;20178;-80
2023/01/25 00:04:21;;;;;;;124.47;15.20;;;;;;;;;;5061704;28;20189;-80
2023/01/25 00:06:46;;;;;;;113.87;15.50;;;;;;;;;;5068726;28;20197;-80
2023/01/25 00:09:12;;;;;;;61.20;10.40;;;;;;;;;;5069065;28;20183;-80
2023/01/25 00:11:37;;;;;;;118.33;15.50;;;;;;;;;;5066394;28;20243;-80
2023/01/25 00:14:03;;;;;;;98.63;12.87;;;;;;;;;;5062863;28;20208;-80
2023/01/25 00:16:29;;;;;;;94.33;13.27;;;;;;;;;;5065388;28;20177;-80
2023/01/25 00:18:54;;;;;;;237.63;20.13;;;;;;;;;;5066638;28;20181;-80
2023/01/25 00:21:20;;;;;;;116.30;14.87;;;;;;;;;;5061562;28;20189;-80
2023/01/25 00:23:46;;;;;;;117.00;14.77;;;;;;;;;;5061226;28;20175;-80
2023/01/25 00:26:11;;;;;;;186.77;17.43;;;;;;;;;;5067231;28;20177;-80
2023/01/25 00:28:36;;;;;;;92.53;14.07;;;;;;;;;;5069247;28;20234;-80
2023/01/25 00:31:02;;;;;;;71.97;12.23;;;;;;;;;;5064775;28;20170;-80
2023/01/25 00:33:37;;;;;;;82.73;13.67;;;;;;;;;;5082187;28;20197;-80
2023/01/25 00:36:22;;;;;;;84.97;14.60;;;;;;;;;;5061482;28;20227;-81
2023/01/25 00:38:48;;;;;;;93.20;14.10;;;;;;;;;;5066042;28;20181;-80
2023/01/25 00:41:13;;;;;;;144.63;16.83;;;;;;;;;;5066038;28;20229;-80
2023/01/25 00:43:38;;;;;;;111.97;14.00;;;;;;;;;;5066500;28;20169;-80
2023/01/25 00:46:03;;;;;;;48.47;9.17;;;;;;;;;;5065423;28;20230;-80
2023/01/25 00:48:29;;;;;;;71.67;12.80;;;;;;;;;;5065664;28;20185;-80
2023/01/25 00:50:58;;;;;;;172.73;15.80;;;;;;;;;;5066204;28;20393;-80
2023/01/25 00:53:23;;;;;;;106.57;14.60;;;;;;;;;;5062120;28;20184;-80
2023/01/25 00:55:52;;;;;;;60.03;8.50;;;;;;;;;;5068862;28;20239;-80
2023/01/25 00:58:17;;;;;;;80.30;12.53;;;;;;;;;;5062856;28;20178;-80
2023/01/25 01:00:42;;;;;;;91.63;12.93;;;;;;;;;;5062131;28;20185;-80
2023/01/25 01:03:07;;;;;;;116.87;14.27;;;;;;;;;;5061176;28;20170;-80
2023/01/25 01:05:35;;;;;;;91.87;14.33;;;;;;;;;;5059325;28;20174;-80
2023/01/25 01:08:00;;;;;;;63.93;13.33;;;;;;;;;;5061655;28;20177;-80
2023/01/25 01:10:25;;;;;;;117.93;15.63;;;;;;;;;;5067003;28;20240;-80
2023/01/25 01:12:50;;;;;;;113.17;14.37;;;;;;;;;;5068997;28;20184;-80
2023/01/25 01:15:15;;;;;;;115.77;16.50;;;;;;;;;;5064602;28;20197;-80
2023/01/25 01:17:41;;;;;;;277.77;22.90;;;;;;;;;;5067815;28;20173;-80
2023/01/25 01:20:06;;;;;;;176.07;18.00;;;;;;;;;;5068069;28;20209;-80
2023/01/25 01:22:31;;;;;;;133.07;15.60;;;;;;;;;;5067777;28;20170;-80
2023/01/25 01:24:56;;;;;;;172.77;18.80;;;;;;;;;;5064357;28;20200;-80
2023/01/25 01:27:22;;;;;;;153.00;18.43;;;;;;;;;;5068378;28;20188;-80
2023/01/25 01:29:47;;;;;;;310.60;24.60;;;;;;;;;;5058552;28;20178;-80
2023/01/25 01:32:12;;;;;;;116.83;15.07;;;;;;;;;;5057688;28;20186;-80
2023/01/25 01:34:37;;;;;;;233.10;19.83;;;;;;;;;;5058877;28;20201;-80
2023/01/25 01:37:03;;;;;;;122.07;16.83;;;;;;;;;;5064849;28;20241;-80
2023/01/25 01:39:28;;;;;;;196.27;17.77;;;;;;;;;;5062895;28;20235;-80
2023/01/25 01:41:53;;;;;;;341.90;26.33;;;;;;;;;;5063447;28;20185;-80
2023/01/25 01:44:21;;;;;;;219.97;19.03;;;;;;;;;;5062193;28;20187;-80
2023/01/25 01:46:51;;;;;;;288.80;26.73;;;;;;;;;;5070208;28;20177;-80
2023/01/25 01:49:25;;;;;;;370.60;28.10;;;;;;;;;;5065200;28;20188;-80
2023/01/25 01:51:50;;;;;;;266.57;23.30;;;;;;;;;;5087185;28;20180;-80
2023/01/25 01:54:27;;;;;;;161.40;17.60;;;;;;;;;;5065071;28;20205;-80
2023/01/25 01:56:52;;;;;;;269.97;23.30;;;;;;;;;;5061517;28;20165;-80
2023/01/25 01:59:18;;;;;;;292.53;22.80;;;;;;;;;;5064026;28;20245;-80
2023/01/25 02:01:43;;;;;;;227.30;20.00;;;;;;;;;;5058790;28;20185;-80
2023/01/25 02:04:09;;;;;;;125.63;17.03;;;;;;;;;;5070223;28;20471;-80
2023/01/25 02:06:54;;;;;;;156.73;16.60;;;;;;;;;;5056269;28;20178;-80
2023/01/25 02:09:21;;;;;;;152.53;16.77;;;;;;;;;;5071744;28;20220;-80
2023/01/25 02:11:46;;;;;;;126.43;15.67;;;;;;;;;;5071786;28;20256;-80
2023/01/25 02:14:13;;;;;;;207.47;19.87;;;;;;;;;;5069758;28;20231;-80
2023/01/25 02:16:40;;;;;;;161.50;19.00;;;;;;;;;;5062415;28;20268;-80
2023/01/25 02:19:06;;;;;;;269.07;22.40;;;;;;;;;;5070486;28;20199;-80
2023/01/25 02:21:36;;;;;;;235.40;21.60;;;;;;;;;;5065272;28;20174;-80
2023/01/25 02:24:05;;;;;;;144.73;15.43;;;;;;;;;;5067345;28;20233;-80
2023/01/25 02:26:30;;;;;;;168.30;16.27;;;;;;;;;;5070698;28;20286;-80
2023/01/25 02:29:04;;;;;;;276.20;22.23;;;;;;;;;;5063205;28;20260;-80
2023/01/25 02:31:29;;;;;;;129.17;15.30;;;;;;;;;;5063654;28;20174;-81
2023/01/25 02:33:54;;;;;;;98.37;14.20;;;;;;;;;;5070578;28;20184;-80
2023/01/25 02:36:24;;;;;;;79.17;12.10;;;;;;;;;;5070455;28;20188;-80
2023/01/25 02:38:54;;;;;;;64.13;12.53;;;;;;;;;;5069908;28;20200;-80
2023/01/25 02:41:29;;;;;;;97.60;13.20;;;;;;;;;;5065624;28;20256;-80
2023/01/25 02:43:54;;;;;;;142.70;15.97;;;;;;;;;;5072115;28;20187;-80
2023/01/25 02:46:26;;;;;;;128.80;16.37;;;;;;;;;;5073403;28;20166;-80
2023/01/25 02:48:51;;;;;;;84.67;12.57;;;;;;;;;;5071812;28;20189;-80
2023/01/25 02:51:16;;;;;;;69.67;12.80;;;;;;;;;;5066964;28;20215;-80
2023/01/25 02:53:42;;;;;;;146.37;17.03;;;;;;;;;;5070612;28;20227;-80
2023/01/25 02:56:07;;;;;;;125.17;16.13;;;;;;;;;;5069013;28;20395;-80
2023/01/25 02:58:32;;;;;;;131.53;16.23;;;;;;;;;;5065438;28;20182;-80
2023/01/25 03:00:58;;;;;;;113.07;12.80;;;;;;;;;;5071250;28;20173;-80
2023/01/25 03:03:24;;;;;;;151.63;15.40;;;;;;;;;;5070991;28;20177;-81
2023/01/25 03:05:49;;;;;;;112.40;13.37;;;;;;;;;;5065629;28;20257;-80
2023/01/25 03:08:14;;;;;;;156.90;17.00;;;;;;;;;;5066887;28;20189;-80
2023/01/25 03:10:39;;;;;;;188.73;19.60;;;;;;;;;;5070460;28;20378;-80
2023/01/25 03:13:05;;;;;;;230.47;21.23;;;;;;;;;;5064625;28;20184;-80
2023/01/25 03:15:30;;;;;;;193.37;19.03;;;;;;;;;;5065552;28;20198;-80
2023/01/25 03:17:56;;;;;;;193.10;19.23;;;;;;;;;;5071234;28;20174;-80
2023/01/25 03:20:21;;;;;;;318.77;25.17;;;;;;;;;;5068016;28;20184;-80
2023/01/25 03:22:46;;;;;;;130.03;15.37;;;;;;;;;;5068279;28;20174;-81
2023/01/25 03:25:11;;;;;;;116.13;14.57;;;;;;;;;;5067309;28;20284;-80
2023/01/25 03:27:37;;;;;;;224.17;20.33;;;;;;;;;;5069832;28;20177;-80
2023/01/25 03:30:02;;;;;;;226.63;20.30;;;;;;;;;;5070423;28;20181;-80
2023/01/25 03:32:27;;;;;;;223.17;19.50;;;;;;;;;;5060241;28;20186;-80
2023/01/25 03:34:52;;;;;;;270.43;21.63;;;;;;;;;;5071166;28;20232;-80
2023/01/25 03:37:17;;;;;;;103.60;15.13;;;;;;;;;;5062746;28;20184;-80
2023/01/25 03:39:43;;;;;;;236.53;21.40;;;;;;;;;;5064706;28;20170;-80
2023/01/25 03:42:08;;;;;;;163.70;15.93;;;;;;;;;;5064851;28;20230;-81
2023/01/25 03:44:33;;;;;;;206.13;20.33;;;;;;;;;;5069491;28;20177;-80
2023/01/25 03:46:58;;;;;;;120.47;13.87;;;;;;;;;;5069680;28;20309;-80
2023/01/25 03:49:24;;;;;;;136.93;12.90;;;;;;;;;;5068081;28;20207;-80
2023/01/25 03:51:49;;;;;;;128.43;15.67;;;;;;;;;;5059455;28;20182;-80
2023/01/25 03:54:14;;;;;;;110.17;13.53;;;;;;;;;;5067263;28;20539;-81
2023/01/25 03:56:39;;;;;;;152.93;16.73;;;;;;;;;;5071785;28;20253;-80
2023/01/25 03:59:05;;;;;;;191.87;19.60;;;;;;;;;;5077139;28;20177;-80
2023/01/25 04:01:30;;;;;;;181.87;16.33;;;;;;;;;;5066074;28;20188;-80
2023/01/25 04:03:55;;;;;;;64.77;9.50;;;;;;;;;;5067607;28;20173;-80
2023/01/25 04:06:20;;;;;;;114.97;14.07;;;;;;;;;;5068043;28;20319;-81
2023/01/25 04:08:46;;;;;;;123.33;16.67;;;;;;;;;;5063611;28;20212;-80
2023/01/25 04:11:11;;;;;;;62.70;11.63;;;;;;;;;;5067593;28;20221;-81
2023/01/25 04:13:37;;;;;;;80.80;13.43;;;;;;;;;;5062431;28;20265;-81
2023/01/25 04:16:03;;;;;;;66.23;11.63;;;;;;;;;;5067464;28;20212;-81
2023/01/25 04:18:28;;;;;;;52.53;9.80;;;;;;;;;;5066445;28;20197;-80
2023/01/25 04:20:54;;;;;;;73.87;11.00;;;;;;;;;;5066501;28;20215;-80
2023/01/25 04:23:19;;;;;;;130.77;18.70;;;;;;;;;;5068643;28;20193;-80
2023/01/25 04:25:51;;;;;;;33.00;10.07;;;;;;;;;;5067533;28;20210;-81
2023/01/25 04:28:16;;;;;;;56.70;10.63;;;;;;;;;;5068368;28;20187;-80
2023/01/25 04:30:42;;;;;;;54.03;12.63;;;;;;;;;;5070538;28;20285;-80
2023/01/25 04:33:10;;;;;;;20.93;9.60;;;;;;;;;;5064144;28;20177;-80
2023/01/25 04:35:35;;;;;;;42.10;10.17;;;;;;;;;;5069104;28;20209;-80
2023/01/25 04:38:01;;;;;;;64.40;11.40;;;;;;;;;;5064759;28;20174;-81
2023/01/25 04:40:28;;;;;;;42.60;10.93;;;;;;;;;;5070309;28;20181;-80
2023/01/25 04:42:53;;;;;;;74.57;14.27;;;;;;;;;;5064703;28;20173;-80
2023/01/25 04:45:18;;;;;;;63.40;12.40;;;;;;;;;;5067699;28;20185;-80
2023/01/25 04:47:43;;;;;;;56.00;10.33;;;;;;;;;;5062440;28;20179;-80
2023/01/25 04:50:09;;;;;;;87.73;12.17;;;;;;;;;;5062373;28;20236;-81
2023/01/25 04:52:34;;;;;;;22.53;9.97;;;;;;;;;;5060091;28;20418;-80
2023/01/25 04:54:59;;;;;;;54.60;9.63;;;;;;;;;;5061655;28;20200;-81
2023/01/25 04:57:24;;;;;;;65.73;10.40;;;;;;;;;;5066776;28;20277;-80
2023/01/25 04:59:49;;;;;;;89.93;11.80;;;;;;;;;;5061186;28;20213;-80
2023/01/25 05:02:15;;;;;;;72.70;12.80;;;;;;;;;;5053977;28;20174;-81
2023/01/25 05:04:40;;;;;;;71.33;10.80;;;;;;;;;;5060570;28;20182;-80
2023/01/25 05:07:05;;;;;;;122.33;14.63;;;;;;;;;;5061255;28;20174;-81
2023/01/25 05:09:30;;;;;;;146.03;13.33;;;;;;;;;;5067881;28;20213;-80
2023/01/25 05:11:55;;;;;;;138.53;14.93;;;;;;;;;;5066190;28;20232;-80
2023/01/25 05:14:21;;;;;;;103.40;13.47;;;;;;;;;;5061843;28;20201;-81
2023/01/25 05:16:46;;;;;;;173.00;16.10;;;;;;;;;;5060835;28;20172;-80
2023/01/25 05:19:11;;;;;;;153.73;16.47;;;;;;;;;;5067004;28;20181;-80
2023/01/25 05:24:20;;;;;;;338.00;24.43;;;;;;;;;;5061221;28;20235;-80
2023/01/25 05:27:04;;;;;;;160.57;17.00;;;;;;;;;;5064392;28;20173;-80
2023/01/25 05:29:30;;;;;;;82.63;10.80;;;;;;;;;;5061847;28;20174;-80
2023/01/25 05:31:56;;;;;;;51.00;10.30;;;;;;;;;;5061219;28;20201;-81
2023/01/25 05:34:21;;;;;;;60.77;9.70;;;;;;;;;;5063276;28;20243;-81
2023/01/25 05:36:46;;;;;;;26.20;9.43;;;;;;;;;;5064893;28;20177;-80
2023/01/25 05:39:12;;;;;;;68.50;10.73;;;;;;;;;;5068288;28;20175;-80
2023/01/25 05:41:37;;;;;;;111.97;12.27;;;;;;;;;;5061744;28;20181;-81
2023/01/25 05:44:02;;;;;;;60.60;12.00;;;;;;;;;;5060030;28;20250;-81
2023/01/25 05:46:27;;;;;;;64.63;12.50;;;;;;;;;;5064462;28;20184;-80
2023/01/25 05:48:52;;;;;;;72.73;12.33;;;;;;;;;;5063431;28;20204;-80
2023/01/25 05:51:18;;;;;;;67.50;9.40;;;;;;;;;;5066093;28;20177;-81
2023/01/25 05:53:43;;;;;;;76.53;11.27;;;;;;;;;;5063853;28;20178;-80
2023/01/25 05:56:09;;;;;;;42.93;9.77;;;;;;;;;;5057395;28;20254;-80
2023/01/25 05:58:34;;;;;;;28.23;7.97;;;;;;;;;;5058351;28;20635;-80
2023/01/25 06:01:00;;;;;;;65.40;10.00;;;;;;;;;;5058048;28;20174;-80
2023/01/25 06:03:26;;;;;;;49.10;10.20;;;;;;;;;;5060447;28;20186;-81
2023/01/25 06:05:58;;;;;;;64.30;11.10;;;;;;;;;;5074969;28;20185;-81
2023/01/25 06:08:24;;;;;;;69.83;12.43;;;;;;;;;;5049621;28;20182;-80
2023/01/25 06:10:49;;;;;;;138.63;14.70;;;;;;;;;;5063438;28;20227;-80
2023/01/25 06:13:14;;;;;;;105.40;13.67;;;;;;;;;;5060772;28;20177;-80
2023/01/25 06:15:40;;;;;;;83.10;11.27;;;;;;;;;;5064826;28;20217;-80
2023/01/25 06:18:05;;;;;;;149.53;14.57;;;;;;;;;;5061301;28;20185;-79
2023/01/25 06:20:30;;;;;;;58.20;11.03;;;;;;;;;;5060677;28;20170;-81
2023/01/25 06:22:55;;;;;;;107.33;13.73;;;;;;;;;;5060891;28;20281;-79
2023/01/25 06:25:20;;;;;;;72.10;13.33;;;;;;;;;;5057724;28;20242;-80
2023/01/25 06:27:46;;;;;;;123.00;16.73;;;;;;;;;;5065879;28;20256;-80
2023/01/25 06:30:11;;;;;;;40.30;11.67;;;;;;;;;;5062867;28;20177;-80
2023/01/25 06:32:36;;;;;;;43.30;11.40;;;;;;;;;;5061906;28;20177;-80
2023/01/25 06:35:02;;;;;;;40.77;10.40;;;;;;;;;;5067340;28;20259;-80
2023/01/25 06:37:27;;;;;;;97.20;17.53;;;;;;;;;;5069305;28;20177;-80
2023/01/25 06:39:52;;;;;;;182.43;18.87;;;;;;;;;;5071364;28;20181;-80
2023/01/25 06:42:18;;;;;;;155.83;17.00;;;;;;;;;;5061442;28;20173;-80
2023/01/25 06:44:43;;;;;;;120.27;15.30;;;;;;;;;;5067341;28;20211;-80
2023/01/25 06:47:08;;;;;;;39.07;12.13;;;;;;;;;;5059923;28;20181;-80
2023/01/25 06:49:33;;;;;;;79.17;13.63;;;;;;;;;;5064739;28;20279;-80
2023/01/25 06:52:00;;;;;;;37.63;12.13;;;;;;;;;;5070068;28;20226;-80
2023/01/25 06:54:25;;;;;;;53.60;11.77;;;;;;;;;;5067617;28;20201;-79
2023/01/25 06:56:50;;;;;;;58.30;13.03;;;;;;;;;;5068485;28;20180;-80
2023/01/25 06:59:15;;;;;;;66.73;11.17;;;;;;;;;;5065896;28;20177;-80
2023/01/25 07:01:41;;;;;;;60.63;13.17;;;;;;;;;;5062626;28;20227;-80
2023/01/25 07:04:08;;;;;;;83.77;13.97;;;;;;;;;;5064494;28;20180;-80
2023/01/25 07:06:33;;;;;;;52.87;11.30;;;;;;;;;;5068589;28;20185;-80
2023/01/25 07:09:05;;;;;;;79.23;14.57;;;;;;;;;;5063013;28;20178;-80
2023/01/25 07:11:31;;;;;;;63.87;12.87;;;;;;;;;;5088135;28;20221;-79
2023/01/25 07:13:57;;;;;;;56.90;11.47;;;;;;;;;;5070169;28;20237;-80
2023/01/25 07:16:23;;;;;;;91.27;13.57;;;;;;;;;;5072060;28;20248;-80
2023/01/25 07:18:48;;;;;;;70.27;11.10;;;;;;;;;;5070353;28;20169;-80
2023/01/25 07:21:15;;;;;;;76.07;13.17;;;;;;;;;;5068234;28;20409;-80
2023/01/25 07:23:40;;;;;;;38.50;11.37;;;;;;;;;;5061812;28;20181;-80
2023/01/25 07:26:09;;;;;;;34.43;8.83;;;;;;;;;;5072198;28;20268;-80
2023/01/25 07:28:35;;;;;;;103.50;13.10;;;;;;;;;;5065554;28;20216;-80
2023/01/25 07:31:06;;;;;;;39.43;10.93;;;;;;;;;;5067901;28;20182;-80
2023/01/25 07:33:32;;;;;;;112.03;12.73;;;;;;;;;;5068220;28;20181;-80
2023/01/25 07:36:01;;;;;;;62.93;12.37;;;;;;;;;;5065026;28;20205;-80
2023/01/25 07:38:26;;;;;;;39.33;11.00;;;;;;;;;;5061572;28;20196;-80
2023/01/25 07:40:52;;;;;;;54.60;13.13;;;;;;;;;;5061071;28;20240;-80
2023/01/25 07:43:17;;;;;;;43.37;11.90;;;;;;;;;;5061581;28;20233;-80
2023/01/25 07:45:47;;;;;;;47.20;12.67;;;;;;;;;;5063552;28;20182;-80
2023/01/25 07:48:12;;;;;;;83.70;14.07;;;;;;;;;;5066396;28;20193;-80
2023/01/25 07:50:38;;;;;;;74.40;13.43;;;;;;;;;;5064339;28;20197;-80
2023/01/25 07:53:03;;;;;;;175.70;19.77;;;;;;;;;;5062692;28;20204;-80
2023/01/25 07:55:29;;;;;;;36.73;12.87;;;;;;;;;;5065687;28;20259;-79
2023/01/25 07:57:54;;;;;;;62.70;12.43;;;;;;;;;;5060418;28;20201;-82
2023/01/25 08:00:20;;;;;;;30.10;10.77;;;;;;;;;;5065417;28;20188;-81
2023/01/25 08:02:48;;;;;;;31.30;12.30;;;;;;;;;;5068663;28;20170;-82
2023/01/25 08:05:13;;;;;;;93.33;16.13;;;;;;;;;;5070947;28;20178;-82
2023/01/25 08:07:38;;;;;;;53.20;11.73;;;;;;;;;;5071626;28;20174;-81
2023/01/25 08:10:05;;;;;;;61.07;13.47;;;;;;;;;;5066736;28;20197;-81
2023/01/25 08:12:33;;;;;;;30.73;10.87;;;;;;;;;;5061670;28;20192;-81
2023/01/25 08:14:58;;;;;;;70.03;13.10;;;;;;;;;;5061968;28;20287;-81
2023/01/25 08:17:23;;;;;;;32.77;12.43;;;;;;;;;;5060857;28;20205;-82
2023/01/25 08:19:48;;;;;;;56.77;13.50;;;;;;;;;;5068146;28;20264;-81
2023/01/25 08:22:14;;;;;;;55.00;13.80;;;;;;;;;;5071010;28;20177;-81
2023/01/25 08:24:39;;;;;;;61.17;14.10;;;;;;;;;;5070252;28;20184;-81
2023/01/25 08:27:04;;;;;;;32.50;10.60;;;;;;;;;;5067790;28;20177;-81
2023/01/25 08:29:29;;;;;;;27.83;13.07;;;;;;;;;;5054267;28;20181;-81
2023/01/25 08:31:55;;;;;;;39.10;11.80;;;;;;;;;;5065004;28;20185;-81
2023/01/25 08:34:20;;;;;;;42.10;12.90;;;;;;;;;;5067896;28;20176;-81
2023/01/25 08:36:45;;;;;;;35.63;11.27;;;;;;;;;;5064927;28;20191;-81
2023/01/25 08:39:11;;;;;;;58.63;13.90;;;;;;;;;;5062937;28;20181;-82
2023/01/25 08:41:37;;;;;;;96.40;16.30;;;;;;;;;;5069830;28;20169;-81
2023/01/25 08:44:04;;;;;;;72.67;14.63;;;;;;;;;;5070655;28;20176;-81
2023/01/25 08:46:30;;;;;;;56.03;13.20;;;;;;;;;;5067953;28;20177;-81
2023/01/25 08:48:56;;;;;;;65.30;13.97;;;;;;;;;;5069564;28;20230;-81
2023/01/25 08:51:22;;;;;;;46.73;12.87;;;;;;;;;;5061937;28;20177;-81
2023/01/25 08:53:47;;;;;;;35.23;11.87;;;;;;;;;;5061443;28;20209;-81
2023/01/25 08:56:14;;;;;;;69.93;12.70;;;;;;;;;;5062582;28;20245;-81
2023/01/25 08:58:41;;;;;;;81.70;13.80;;;;;;;;;;5064076;28;20178;-81
2023/01/25 09:01:08;;;;;;;32.67;14.37;;;;;;;;;;5058994;28;20178;-81
2023/01/25 09:03:44;;;;;;;37.13;13.63;;;;;;;;;;5070755;28;20285;-81
2023/01/25 09:06:09;;;;;;;40.23;14.13;;;;;;;;;;5064205;28;20170;-80
2023/01/25 09:08:34;;;;;;;42.17;14.67;;;;;;;;;;5062915;28;20266;-81
2023/01/25 09:11:01;;;;;;;44.63;16.93;;;;;;;;;;5060346;28;20230;-81
2023/01/25 09:13:26;;;;;;;125.07;22.90;;;;;;;;;;5065827;28;20180;-81
2023/01/25 09:15:51;;;;;;;100.83;15.70;;;;;;;;;;5062355;28;20216;-81
2023/01/25 09:18:17;;;;;;;39.43;12.50;;;;;;;;;;5070350;28;20165;-81
2023/01/25 09:20:42;;;;;;;39.43;13.07;;;;;;;;;;5066938;28;20234;-81
2023/01/25 09:23:07;;;;;;;31.97;11.87;;;;;;;;;;5058605;28;20181;-81
2023/01/25 09:25:34;;;;;;;57.80;13.83;;;;;;;;;;5064627;28;20204;-81
2023/01/25 09:27:59;;;;;;;33.73;11.43;;;;;;;;;;5063526;28;20176;-81
2023/01/25 09:30:25;;;;;;;46.93;11.87;;;;;;;;;;5066508;28;20177;-81
2023/01/25 09:32:50;;;;;;;49.47;13.50;;;;;;;;;;5065541;28;20177;-81
2023/01/25 09:35:15;;;;;;;74.70;14.33;;;;;;;;;;5058947;28;20283;-81
2023/01/25 09:37:40;;;;;;;47.60;11.40;;;;;;;;;;5054493;28;20174;-81
2023/01/25 09:40:11;;;;;;;78.67;14.03;;;;;;;;;;5067694;28;20174;-81
2023/01/25 09:42:47;;;;;;;33.07;10.40;;;;;;;;;;5056736;28;20166;-81
2023/01/25 09:45:30;;;;;;;33.57;10.70;;;;;;;;;;5062088;28;20177;-81
2023/01/25 09:47:59;;;;;;;35.93;12.47;;;;;;;;;;5063978;28;20270;-81
2023/01/25 09:50:30;;;;;;;42.17;13.40;;;;;;;;;;5066303;28;20203;-81
2023/01/25 09:53:09;;;;;;;34.90;11.70;;;;;;;;;;5067197;28;20280;-81
2023/01/25 09:55:34;;;;;;;43.93;12.20;;;;;;;;;;5056032;28;20208;-81
2023/01/25 09:58:00;;;;;;;26.17;11.17;;;;;;;;;;5064716;28;20177;-81
2023/01/25 10:00:34;;;;;;;46.90;13.17;;;;;;;;;;5065571;28;20185;-81
2023/01/25 10:03:18;;;;;;;35.03;10.60;;;;;;;;;;5069349;28;20189;-81
2023/01/25 10:05:45;;;;;;;58.60;12.37;;;;;;;;;;5064838;28;20177;-81
2023/01/25 10:08:20;;;;;;;24.63;9.70;;;;;;;;;;5069478;28;20256;-81
2023/01/25 10:10:47;;;;;;;28.90;9.27;;;;;;;;;;5061637;28;20232;-81
2023/01/25 10:13:14;;;;;;;48.93;13.27;;;;;;;;;;5068153;28;20180;-81
2023/01/25 10:15:42;;;;;;;27.57;9.00;;;;;;;;;;5066466;28;20200;-81
2023/01/25 10:18:17;;;;;;;41.87;8.83;;;;;;;;;;5068960;28;20184;-81
2023/01/25 10:20:50;;;;;;;15.43;6.77;;;;;;;;;;5067169;28;20172;-81
2023/01/25 10:23:24;;;;;;;23.80;11.33;;;;;;;;;;5070858;28;20216;-81
2023/01/25 10:25:59;;;;;;;26.07;7.27;;;;;;;;;;5066997;28;20177;-81
2023/01/25 10:28:25;;;;;;;45.40;11.47;;;;;;;;;;5068213;28;20180;-81
2023/01/25 10:30:50;;;;;;;54.63;12.10;;;;;;;;;;5067650;28;20268;-81
2023/01/25 10:33:18;;;;;;;52.45;12.80;;;;;;;;;;5071711;28;20189;-81
2023/01/25 10:35:45;;;;;;;39.13;11.50;;;;;;;;;;5063911;28;20205;-81
2023/01/25 10:38:13;;;;;;;29.13;10.23;;;;;;;;;;5064225;28;20171;-81
2023/01/25 10:40:45;;;;;;;45.80;11.03;;;;;;;;;;5071431;28;20178;-80
2023/01/25 10:43:20;;;;;;;28.57;10.40;;;;;;;;;;5073523;28;20165;-81
2023/01/25 10:45:47;;;;;;;65.87;18.43;;;;;;;;;;5071203;28;20227;-81
2023/01/25 10:48:20;;;;;;;94.43;20.83;;;;;;;;;;5069495;28;20184;-81
2023/01/25 10:50:47;;;;;;;41.43;14.50;;;;;;;;;;5068106;28;20181;-81
2023/01/25 10:53:31;;;;;;;43.23;15.67;;;;;;;;;;5061928;28;20161;-81
2023/01/25 10:56:02;;;;;;;30.10;10.90;;;;;;;;;;5069001;28;20209;-81
2023/01/25 10:58:38;;;;;;;72.50;17.73;;;;;;;;;;5071887;28;20196;-81
2023/01/25 11:01:05;;;;;;;26.10;11.40;;;;;;;;;;5068628;28;20177;-81
2023/01/25 11:03:37;;;;;;;21.47;13.07;;;;;;;;;;5065359;28;20176;-81
2023/01/25 11:06:03;;;;;;;22.67;11.63;;;;;;;;;;5060485;28;20226;-81
2023/01/25 11:08:38;;;;;;;35.60;12.27;;;;;;;;;;5066422;28;20181;-81
2023/01/25 11:11:21;;;;;;;45.93;13.10;;;;;;;;;;5063925;28;20231;-81
2023/01/25 11:13:46;;;;;;;50.43;13.27;;;;;;;;;;5070903;28;20174;-81
2023/01/25 11:16:30;;;;;;;24.70;10.37;;;;;;;;;;5069132;28;20199;-81
2023/01/25 11:18:56;;;;;;;72.20;15.77;;;;;;;;;;5063210;28;20166;-81
2023/01/25 11:21:24;;;;;;;14.20;8.43;;;;;;;;;;5063194;28;20174;-81
2023/01/25 11:24:08;;;;;;;23.97;11.47;;;;;;;;;;5066255;28;20174;-81
2023/01/25 11:26:35;;;;;;;36.10;11.63;;;;;;;;;;5067659;28;20166;-81
2023/01/25 11:29:19;;;;;;;20.87;11.13;;;;;;;;;;5072555;28;20179;-81
2023/01/25 11:31:47;;;;;;;38.20;16.90;;;;;;;;;;5067334;28;20208;-81
2023/01/25 11:34:14;;;;;;;43.67;13.67;;;;;;;;;;5070212;28;20235;-81
2023/01/25 11:37:05;;;;;;;52.93;12.80;;;;;;;;;;5058013;28;20193;-81
2023/01/25 11:39:43;;;;;;;29.57;12.63;;;;;;;;;;5037910;28;20609;-81
2023/01/25 11:42:16;;;;;;;35.67;14.00;;;;;;;;;;5061823;28;20208;-81
2023/01/25 11:44:53;;;;;;;27.23;11.33;;;;;;;;;;5066497;28;20181;-81
2023/01/25 11:47:37;;;;;;;25.10;10.63;;;;;;;;;;5070339;28;20183;-81
2023/01/25 11:50:21;;;;;;;30.07;10.17;;;;;;;;;;5059854;28;20165;-81
2023/01/25 11:52:46;;;;;;;18.67;7.63;;;;;;;;;;5055236;28;20180;-81
2023/01/25 11:55:20;;;;;;;57.97;13.47;;;;;;;;;;5070708;28;20416;-81
2023/01/25 11:58:01;;;;;;;36.30;11.90;;;;;;;;;;5071989;28;20176;-81
2023/01/25 12:00:35;;;;;;;33.93;10.93;;;;;;;;;;5069139;28;20253;-81
2023/01/25 12:03:19;;;;;;;39.63;12.53;;;;;;;;;;5062320;28;20248;-81
2023/01/25 12:05:44;;;;;;;394.23;32.77;;;;;;;;;;5066519;28;20173;-81
2023/01/25 12:08:28;;;;;;;127.47;15.97;;;;;;;;;;5064387;28;20293;-81
2023/01/25 12:10:57;;;;;;;37.60;12.50;;;;;;;;;;5064855;28;20236;-81
2023/01/25 12:13:28;;;;;;;33.63;10.37;;;;;;;;;;5070971;28;20180;-81
2023/01/25 12:16:11;;;;;;;22.60;10.00;;;;;;;;;;5070332;28;20201;-81
2023/01/25 12:18:49;;;;;;;21.87;10.20;;;;;;;;;;5067267;28;20181;-81
2023/01/25 12:21:29;;;;;;;31.47;10.10;;;;;;;;;;5078484;28;20177;-81
2023/01/25 12:23:55;;;;;;;76.47;13.43;;;;;;;;;;5062113;28;20184;-81
2023/01/25 12:26:27;;;;;;;66.60;14.37;;;;;;;;;;5069031;28;20177;-81
2023/01/25 12:29:11;;;;;;;43.53;9.63;;;;;;;;;;5067439;28;20181;-81
2023/01/25 12:31:42;;;;;;;70.90;12.87;;;;;;;;;;5066018;28;20173;-81
2023/01/25 12:34:17;;;;;;;34.43;10.60;;;;;;;;;;5070987;28;20181;-81
2023/01/25 12:36:43;;;;;;;24.00;8.67;;;;;;;;;;5069532;28;20235;-81
2023/01/25 12:39:11;;;;;;;31.90;9.67;;;;;;;;;;5063980;28;20170;-81
2023/01/25 12:41:37;;;;;;;12.63;4.83;;;;;;;;;;5060295;28;20169;-81
2023/01/25 12:44:05;;;;;;;155.97;16.43;;;;;;;;;;5059828;28;20185;-81
2023/01/25 12:46:37;;;;;;;51.23;13.93;;;;;;;;;;5063426;28;20177;-81
2023/01/25 12:49:06;;;;;;;35.40;11.90;;;;;;;;;;5062382;28;20192;-81
2023/01/25 12:51:36;;;;;;;33.10;11.23;;;;;;;;;;5064410;28;20176;-81
2023/01/25 12:54:06;;;;;;;57.50;11.70;;;;;;;;;;5061756;28;20258;-81
2023/01/25 12:56:45;;;;;;;91.73;14.53;;;;;;;;;;5065466;28;20204;-81
2023/01/25 12:59:17;;;;;;;168.93;19.43;;;;;;;;;;5062718;28;20181;-81
2023/01/25 13:01:45;;;;;;;101.30;18.73;;;;;;;;;;5058559;28;20207;-81
2023/01/25 13:04:45;;;;;;;164.03;20.30;;;;;;;;;;5062556;28;20196;-81
2023/01/25 13:07:28;;;;;;;83.37;13.20;;;;;;;;;;5023732;28;20180;-81
2023/01/25 13:10:03;;;;;;;118.07;15.50;;;;;;;;;;5060462;28;20193;-81
2023/01/25 13:12:28;;;;;;;33.13;10.73;;;;;;;;;;5021804;28;20205;-81
2023/01/25 13:14:54;;;;;;;93.97;13.63;;;;;;;;;;5027695;28;20190;-81
2023/01/25 13:17:19;;;;;;;119.30;14.43;;;;;;;;;;5014606;28;20185;-81
2023/01/25 13:19:44;;;;;;;46.53;12.30;;;;;;;;;;5020895;28;20237;-81
2023/01/25 13:22:10;;;;;;;204.90;18.30;;;;;;;;;;5024353;28;20222;-81
2023/01/25 13:24:54;;;;;;;144.07;16.33;;;;;;;;;;5023693;28;20309;-81
2023/01/25 13:27:24;;;;;;;36.80;11.07;;;;;;;;;;5030281;28;20175;-81
2023/01/25 13:29:55;;;;;;;184.23;17.83;;;;;;;;;;5022901;28;20218;-81
2023/01/25 13:32:23;;;;;;;167.97;19.23;;;;;;;;;;5022719;28;20265;-81
2023/01/25 13:34:48;;;;;;;275.43;23.97;;;;;;;;;;5024430;28;20250;-81
2023/01/25 13:37:14;;;;;;;136.97;19.13;;;;;;;;;;5025824;28;20179;-81
2023/01/25 13:39:40;;;;;;;166.33;17.13;;;;;;;;;;5029196;28;20183;-81
2023/01/25 13:42:08;;;;;;;168.00;18.50;;;;;;;;;;5023864;28;20174;-81
2023/01/25 13:44:34;;;;;;;149.40;17.97;;;;;;;;;;5025743;28;20198;-81
2023/01/25 13:47:02;;;;;;;171.70;18.50;;;;;;;;;;5034341;28;20175;-81
2023/01/25 13:49:31;;;;;;;132.37;17.93;;;;;;;;;;5032444;28;20193;-81
2023/01/25 13:51:58;;;;;;;200.53;20.57;;;;;;;;;;5028305;28;20365;-81
2023/01/25 13:54:23;;;;;;;278.97;23.57;;;;;;;;;;5023568;28;20173;-81
2023/01/25 13:57:01;;;;;;;47.93;11.50;;;;;;;;;;5033311;28;20265;-82
2023/01/25 13:59:27;;;;;;;87.67;12.17;;;;;;;;;;5026244;28;20174;-81
2023/01/25 14:01:52;;;;;;;97.70;13.53;;;;;;;;;;5026892;28;20177;-81
2023/01/25 14:04:17;;;;;;;103.00;13.10;;;;;;;;;;5027025;28;20178;-81
2023/01/25 14:06:43;;;;;;;111.17;14.47;;;;;;;;;;5027833;28;20182;-81
2023/01/25 14:09:14;;;;;;;65.60;13.83;;;;;;;;;;5028669;28;20177;-81
2023/01/25 14:11:45;;;;;;;53.07;11.83;;;;;;;;;;5056896;28;20305;-81
2023/01/25 14:14:10;;;;;;;63.47;12.43;;;;;;;;;;5085725;28;20270;-81
2023/01/25 14:16:35;;;;;;;36.53;10.15;;;;;;;;;;5069285;28;20235;-81
2023/01/25 14:19:19;;;;;;;145.80;17.33;;;;;;;;;;5070435;28;20192;-81
2023/01/25 14:21:44;;;;;;;138.83;14.97;;;;;;;;;;5068731;28;20172;-81